This is the latest recevied weather packets stored in our database for station/object W3JBS-2. If no packets are shown the sender has not sent any weather packets the latest 10 day(s).
| Time | Temp. | Humidity | Pressure | Rain* | Wind** | Luminosity | Snow |
|---|---|---|---|---|---|---|---|
| 1777863119 | 8.33° C | 54% | 1014 hPa | 0 mm | - | - | - |
| 1777862220 | 8.33° C | 53% | 1014 hPa | 0 mm | - | - | - |
| 1777861320 | 8.89° C | 52% | 1014 hPa | 0 mm | - | - | - |
| 1777860420 | 8.89° C | 53% | 1014 hPa | 0 mm | - | - | - |
| 1777859519 | 8.89° C | 53% | 1013.9 hPa | 0 mm | - | - | - |
| 1777858619 | 9.44° C | 51% | 1013.9 hPa | 0 mm | - | - | - |
| 1777857719 | 10° C | 51% | 1013.7 hPa | 0 mm | - | - | - |
| 1777856819 | 10.56° C | 48% | 1013.5 hPa | 0 mm | - | - | - |
| 1777855920 | 11.11° C | 44% | 1013.3 hPa | 0 mm | - | - | - |
| 1777855019 | 11.67° C | 43% | 1013.2 hPa | 0 mm | - | - | - |
| 1777854119 | 12.22° C | 41% | 1012.8 hPa | 0 mm | - | - | - |
| 1777852319 | 13.33° C | 39% | 1012.7 hPa | 0 mm | - | - | - |
| 1777851419 | 13.89° C | 38% | 1012.4 hPa | 0 mm | - | - | - |
| 1777850520 | 13.89° C | 38% | 1012.4 hPa | 0 mm | - | - | - |
| 1777849619 | 14.44° C | 37% | 1012.3 hPa | 0 mm | - | - | - |
| 1777848719 | 14.44° C | 36% | 1012.2 hPa | 0 mm | - | - | - |
| 1777847819 | 15° C | 36% | 1012.2 hPa | 0 mm | - | - | - |
| 1777846919 | 15° C | 36% | 1012.2 hPa | 0 mm | - | - | - |
| 1777846019 | 15° C | 36% | 1012.3 hPa | 0 mm | - | - | - |
| 1777845119 | 15° C | 35% | 1012.3 hPa | 0 mm | - | - | - |
| 1777844220 | 15° C | 36% | 1012.3 hPa | 0 mm | - | - | - |
| 1777843319 | 15° C | 35% | 1012.2 hPa | 0 mm | - | - | - |
| 1777842419 | 15° C | 34% | 1012.2 hPa | 0 mm | - | - | - |
| 1777841519 | 15.56° C | 35% | 1012.2 hPa | 0 mm | - | - | - |
| 1777840619 | 15° C | 37% | 1012.5 hPa | 0 mm | - | - | - |
* Rain latest hour (hover to see other rain measurements)
** Current wind speed in m/s (hover to see current wind gust speed)